createdAt,value
2018-12-21T00:05:32.523Z,0.40
2018-12-21T00:15:36.631Z,0.40
2018-12-21T00:25:40.789Z,0.60
2018-12-21T00:35:50.119Z,0.40
2018-12-21T00:45:57.631Z,0.40
2018-12-21T00:56:02.537Z,0.40
2018-12-21T01:06:08.517Z,0.40
2018-12-21T01:16:13.845Z,0.40
2018-12-21T01:26:17.979Z,0.50
2018-12-21T01:36:22.104Z,0.50
2018-12-21T01:46:26.262Z,0.50
2018-12-21T01:56:31.777Z,0.50
2018-12-21T02:06:35.833Z,0.60
2018-12-21T02:16:39.931Z,0.70
2018-12-21T02:26:44.148Z,0.70
2018-12-21T02:36:48.287Z,0.70
2018-12-21T02:46:52.373Z,0.80
2018-12-21T02:56:57.233Z,0.90
2018-12-21T03:07:01.443Z,0.90
2018-12-21T03:17:05.622Z,0.90
2018-12-21T03:27:09.735Z,1.00
2018-12-21T03:37:13.907Z,1.00
2018-12-21T03:47:17.995Z,1.10
2018-12-21T03:57:22.703Z,1.10
2018-12-21T04:07:28.040Z,1.30
2018-12-21T04:17:32.768Z,1.30
2018-12-21T04:27:37.260Z,1.40
2018-12-21T04:37:41.414Z,1.50
2018-12-21T04:47:46.338Z,1.60
2018-12-21T04:57:50.499Z,1.70
2018-12-21T05:07:55.558Z,1.70
2018-12-21T05:18:00.742Z,1.70
2018-12-21T05:28:05.793Z,1.90
2018-12-21T05:38:10.222Z,2.00
2018-12-21T05:48:16.226Z,2.10
2018-12-21T05:58:20.310Z,2.30
2018-12-21T06:08:26.024Z,2.40
2018-12-21T06:18:30.977Z,2.40
2018-12-21T06:28:35.904Z,2.60
2018-12-21T06:38:40.596Z,2.70
2018-12-21T06:48:47.683Z,2.80
2018-12-21T06:58:52.449Z,2.80
2018-12-21T07:08:58.670Z,2.90
2018-12-21T07:19:03.923Z,3.00
2018-12-21T07:29:10.105Z,3.10
2018-12-21T07:39:14.192Z,3.20
2018-12-21T07:49:19.041Z,3.30
2018-12-21T07:59:24.965Z,3.50
2018-12-21T08:09:29.208Z,3.60
2018-12-21T08:19:33.381Z,3.80
2018-12-21T08:29:38.810Z,3.90
2018-12-21T08:39:42.929Z,4.00
2018-12-21T08:49:47.080Z,4.00
2018-12-21T08:59:51.169Z,4.30
2018-12-21T09:09:55.312Z,4.50
2018-12-21T09:19:59.772Z,4.40
2018-12-21T09:30:04.179Z,4.20
2018-12-21T09:40:11.059Z,4.20
2018-12-21T09:50:15.286Z,4.20
2018-12-21T10:00:19.425Z,4.20
2018-12-21T10:10:23.661Z,4.30
2018-12-21T10:20:27.983Z,4.40
2018-12-21T10:30:32.267Z,4.50
2018-12-21T10:40:36.441Z,4.40
2018-12-21T10:50:40.541Z,4.30
2018-12-21T11:00:44.665Z,4.20
2018-12-21T11:10:49.008Z,4.40
2018-12-21T11:20:53.324Z,4.70
2018-12-21T11:30:57.658Z,5.00
2018-12-21T11:41:02.221Z,5.00
2018-12-21T11:51:06.446Z,5.10
2018-12-21T12:01:10.926Z,5.10
2018-12-21T12:11:15.111Z,5.00
2018-12-21T12:21:19.420Z,4.90
2018-12-21T12:31:23.891Z,5.00
2018-12-21T12:41:28.455Z,4.90
2018-12-21T12:51:32.651Z,4.80
2018-12-21T13:01:36.900Z,4.60
2018-12-21T13:11:41.666Z,4.50
2018-12-21T13:21:45.812Z,4.50
2018-12-21T13:31:49.994Z,4.40
2018-12-21T13:41:54.218Z,4.40
2018-12-21T13:51:58.597Z,4.30
2018-12-21T14:02:02.786Z,4.30
2018-12-21T14:12:07.092Z,4.20
2018-12-21T14:22:12.374Z,4.10
2018-12-21T14:32:16.759Z,4.10
2018-12-21T14:42:20.985Z,4.10
2018-12-21T14:52:25.182Z,4.10
2018-12-21T15:02:29.372Z,4.10
2018-12-21T15:12:33.514Z,4.20
2018-12-21T15:22:37.760Z,4.20
2018-12-21T15:32:42.156Z,4.20
2018-12-21T15:42:46.586Z,4.30
2018-12-21T15:52:51.352Z,4.30
2018-12-21T16:02:56.574Z,4.30
2018-12-21T16:13:00.649Z,4.20
2018-12-21T16:23:04.997Z,4.10
2018-12-21T16:33:09.119Z,4.10
2018-12-21T16:43:13.246Z,3.90
2018-12-21T16:53:17.443Z,3.90
2018-12-21T17:03:21.635Z,3.80
2018-12-21T17:13:25.793Z,3.60
2018-12-21T17:23:30.147Z,3.60
2018-12-21T17:33:34.373Z,3.50
2018-12-21T17:43:38.429Z,3.30
2018-12-21T17:53:42.875Z,3.30
2018-12-21T18:03:57.465Z,3.30
2018-12-21T18:14:01.587Z,3.20
2018-12-21T18:24:05.855Z,3.30
2018-12-21T18:34:14.160Z,3.40
2018-12-21T18:44:18.326Z,3.40
2018-12-21T18:54:22.441Z,3.40
2018-12-21T19:04:26.617Z,3.40
2018-12-21T19:14:31.207Z,3.50
2018-12-21T19:24:35.349Z,3.50
2018-12-21T19:34:39.615Z,3.40
2018-12-21T19:44:43.839Z,3.30
2018-12-21T19:54:51.989Z,3.30
2018-12-21T20:04:56.150Z,3.40
2018-12-21T20:15:00.328Z,3.50
2018-12-21T20:25:04.798Z,3.50
2018-12-21T20:35:09.481Z,3.40
2018-12-21T20:45:13.643Z,3.30
2018-12-21T20:55:17.774Z,3.10
2018-12-21T21:05:21.889Z,2.80
2018-12-21T21:15:26.176Z,2.70
2018-12-21T21:25:30.308Z,2.50
2018-12-21T21:35:34.554Z,2.50
2018-12-21T21:45:38.650Z,2.50
2018-12-21T21:55:42.794Z,2.40
2018-12-21T22:05:46.923Z,2.50
2018-12-21T22:15:51.022Z,2.50
2018-12-21T22:25:55.200Z,2.50
2018-12-21T22:35:59.352Z,2.70
2018-12-21T22:46:03.514Z,2.80
2018-12-21T22:56:07.631Z,2.70
2018-12-21T23:06:11.773Z,2.50
2018-12-21T23:16:15.831Z,2.40
2018-12-21T23:26:19.954Z,2.30
2018-12-21T23:36:24.116Z,2.30
2018-12-21T23:46:28.248Z,2.20
2018-12-21T23:56:32.559Z,2.10
